sensor_id;sensor_type;location;lat;lon;timestamp;pressure;altitude;pressure_sealevel;temperature;humidity
74228;BME280;62587;52.352;5.006;2023-02-28T00:00:50;103172.78;;;21.65;34.89
74228;BME280;62587;52.352;5.006;2023-02-28T00:03:15;103171.88;;;21.66;35.24
74228;BME280;62587;52.352;5.006;2023-02-28T00:05:41;103171.94;;;21.64;35.04
74228;BME280;62587;52.352;5.006;2023-02-28T00:08:07;103167.53;;;21.63;35.53
74228;BME280;62587;52.352;5.006;2023-02-28T00:10:33;103161.41;;;21.61;35.37
74228;BME280;62587;52.352;5.006;2023-02-28T00:13:01;103161.50;;;21.58;35.61
74228;BME280;62587;52.352;5.006;2023-02-28T00:15:27;103160.72;;;21.56;35.76
74228;BME280;62587;52.352;5.006;2023-02-28T00:17:53;103164.34;;;21.54;35.57
74228;BME280;62587;52.352;5.006;2023-02-28T00:20:19;103161.75;;;21.52;35.56
74228;BME280;62587;52.352;5.006;2023-02-28T00:22:47;103160.94;;;21.50;35.69
74228;BME280;62587;52.352;5.006;2023-02-28T00:25:14;103162.97;;;21.44;35.63
74228;BME280;62587;52.352;5.006;2023-02-28T00:27:40;103161.28;;;21.41;35.74
74228;BME280;62587;52.352;5.006;2023-02-28T00:30:08;103159.69;;;21.37;35.75
74228;BME280;62587;52.352;5.006;2023-02-28T00:32:34;103171.31;;;21.34;35.50
74228;BME280;62587;52.352;5.006;2023-02-28T00:34:59;103172.41;;;21.29;35.76
74228;BME280;62587;52.352;5.006;2023-02-28T00:37:25;103177.09;;;21.22;35.97
74228;BME280;62587;52.352;5.006;2023-02-28T00:39:50;103166.63;;;21.18;35.67
74228;BME280;62587;52.352;5.006;2023-02-28T00:42:16;103170.34;;;21.14;35.73
74228;BME280;62587;52.352;5.006;2023-02-28T00:44:41;103170.47;;;21.09;35.77
74228;BME280;62587;52.352;5.006;2023-02-28T00:47:06;103169.69;;;21.07;35.59
74228;BME280;62587;52.352;5.006;2023-02-28T00:49:32;103166.25;;;21.04;35.83
74228;BME280;62587;52.352;5.006;2023-02-28T00:51:58;103167.16;;;21.03;35.62
74228;BME280;62587;52.352;5.006;2023-02-28T00:54:23;103161.94;;;21.00;35.46
74228;BME280;62587;52.352;5.006;2023-02-28T00:56:49;103162.00;;;20.98;35.41
74228;BME280;62587;52.352;5.006;2023-02-28T00:59:16;103159.41;;;20.97;35.30
74228;BME280;62587;52.352;5.006;2023-02-28T01:01:43;103153.31;;;20.93;35.15
74228;BME280;62587;52.352;5.006;2023-02-28T01:04:09;103157.75;;;20.93;35.53
74228;BME280;62587;52.352;5.006;2023-02-28T01:06:34;103156.91;;;20.92;35.12
74228;BME280;62587;52.352;5.006;2023-02-28T01:09:00;103157.88;;;20.90;35.23
74228;BME280;62587;52.352;5.006;2023-02-28T01:11:25;103154.44;;;20.86;34.97
74228;BME280;62587;52.352;5.006;2023-02-28T01:13:51;103158.09;;;20.84;35.25
74228;BME280;62587;52.352;5.006;2023-02-28T01:16:17;103160.81;;;20.82;34.87
74228;BME280;62587;52.352;5.006;2023-02-28T01:18:42;103147.53;;;20.81;34.87
74228;BME280;62587;52.352;5.006;2023-02-28T01:21:12;103150.19;;;20.81;35.07
74228;BME280;62587;52.352;5.006;2023-02-28T01:23:39;103145.84;;;20.78;35.01
74228;BME280;62587;52.352;5.006;2023-02-28T01:26:10;103139.69;;;20.78;34.98
74228;BME280;62587;52.352;5.006;2023-02-28T01:28:36;103136.25;;;20.74;34.95
74228;BME280;62587;52.352;5.006;2023-02-28T01:31:01;103126.56;;;20.71;34.90
74228;BME280;62587;52.352;5.006;2023-02-28T01:33:27;103136.50;;;20.68;34.97
74228;BME280;62587;52.352;5.006;2023-02-28T01:36:05;103135.59;;;20.67;34.80
74228;BME280;62587;52.352;5.006;2023-02-28T01:38:32;103134.81;;;20.65;34.74
74228;BME280;62587;52.352;5.006;2023-02-28T01:40:58;103138.38;;;20.64;34.86
74228;BME280;62587;52.352;5.006;2023-02-28T01:43:31;103133.13;;;20.63;35.04
74228;BME280;62587;52.352;5.006;2023-02-28T01:45:58;103138.47;;;20.61;34.90
74228;BME280;62587;52.352;5.006;2023-02-28T01:48:32;103141.09;;;20.63;34.93
74228;BME280;62587;52.352;5.006;2023-02-28T01:51:05;103134.09;;;20.60;34.82
74228;BME280;62587;52.352;5.006;2023-02-28T01:53:39;103128.81;;;20.59;34.60
74228;BME280;62587;52.352;5.006;2023-02-28T01:56:08;103130.66;;;20.57;34.51
74228;BME280;62587;52.352;5.006;2023-02-28T01:58:35;103133.38;;;20.55;34.64
74228;BME280;62587;52.352;5.006;2023-02-28T02:01:01;103130.75;;;20.54;34.42
74228;BME280;62587;52.352;5.006;2023-02-28T02:03:29;103135.25;;;20.52;34.49
74228;BME280;62587;52.352;5.006;2023-02-28T02:05:55;103127.34;;;20.50;34.72
74228;BME280;62587;52.352;5.006;2023-02-28T02:08:26;103124.75;;;20.49;34.77
74228;BME280;62587;52.352;5.006;2023-02-28T02:10:59;103119.47;;;20.47;34.38
74228;BME280;62587;52.352;5.006;2023-02-28T02:27:23;103101.94;;;20.42;34.25
74228;BME280;62587;52.352;5.006;2023-02-28T02:38:35;103111.91;;;20.35;34.37
74228;BME280;62587;52.352;5.006;2023-02-28T02:43:51;103111.09;;;20.33;34.11
74228;BME280;62587;52.352;5.006;2023-02-28T02:46:27;103108.50;;;20.32;34.15
74228;BME280;62587;52.352;5.006;2023-02-28T02:48:54;103108.50;;;20.32;34.43
74228;BME280;62587;52.352;5.006;2023-02-28T02:51:22;103107.63;;;20.31;34.59
74228;BME280;62587;52.352;5.006;2023-02-28T02:54:05;103101.38;;;20.32;34.09
74228;BME280;62587;52.352;5.006;2023-02-28T02:56:34;103112.06;;;20.31;34.53
74228;BME280;62587;52.352;5.006;2023-02-28T02:59:03;103111.19;;;20.30;34.38
74228;BME280;62587;52.352;5.006;2023-02-28T03:01:32;103108.53;;;20.30;34.39
74228;BME280;62587;52.352;5.006;2023-02-28T03:04:20;103111.25;;;20.29;34.46
74228;BME280;62587;52.352;5.006;2023-02-28T03:06:47;103113.97;;;20.27;34.26
74228;BME280;62587;52.352;5.006;2023-02-28T03:09:12;103118.34;;;20.28;34.16
74228;BME280;62587;52.352;5.006;2023-02-28T03:11:38;103113.97;;;20.27;34.21
74228;BME280;62587;52.352;5.006;2023-02-28T03:21:53;103108.81;;;20.23;33.74
74228;BME280;62587;52.352;5.006;2023-02-28T03:24:27;103103.50;;;20.23;33.59
74228;BME280;62587;52.352;5.006;2023-02-28T03:27:01;103110.53;;;20.24;33.63
74228;BME280;62587;52.352;5.006;2023-02-28T03:29:42;103109.66;;;20.23;33.86
74228;BME280;62587;52.352;5.006;2023-02-28T03:35:22;103097.38;;;20.19;33.33
74228;BME280;62587;52.352;5.006;2023-02-28T03:40:50;103108.00;;;20.19;33.33
74228;BME280;62587;52.352;5.006;2023-02-28T03:43:23;103104.47;;;20.19;33.26
74228;BME280;62587;52.352;5.006;2023-02-28T03:45:51;103109.84;;;20.17;33.45
74228;BME280;62587;52.352;5.006;2023-02-28T03:48:23;103111.56;;;20.18;33.46
74228;BME280;62587;52.352;5.006;2023-02-28T03:50:54;103119.53;;;20.20;33.08
74228;BME280;62587;52.352;5.006;2023-02-28T03:53:33;103123.09;;;20.19;33.24
74228;BME280;62587;52.352;5.006;2023-02-28T03:56:06;103114.28;;;20.17;33.31
74228;BME280;62587;52.352;5.006;2023-02-28T04:01:38;103124.06;;;20.16;33.12
74228;BME280;62587;52.352;5.006;2023-02-28T04:04:07;103118.84;;;20.13;32.88
74228;BME280;62587;52.352;5.006;2023-02-28T04:06:33;103112.66;;;20.13;33.00
74228;BME280;62587;52.352;5.006;2023-02-28T04:08:59;103104.72;;;20.11;33.36
74228;BME280;62587;52.352;5.006;2023-02-28T04:11:35;103109.13;;;20.12;33.37
74228;BME280;62587;52.352;5.006;2023-02-28T04:14:02;103110.97;;;20.10;32.97
74228;BME280;62587;52.352;5.006;2023-02-28T04:16:29;103112.75;;;20.10;33.23
74228;BME280;62587;52.352;5.006;2023-02-28T04:18:54;103111.00;;;20.08;33.17
74228;BME280;62587;52.352;5.006;2023-02-28T04:21:34;103109.28;;;20.08;32.96
74228;BME280;62587;52.352;5.006;2023-02-28T04:24:00;103112.81;;;20.08;33.07
74228;BME280;62587;52.352;5.006;2023-02-28T04:26:33;103102.28;;;20.05;33.23
74228;BME280;62587;52.352;5.006;2023-02-28T04:28:59;103108.47;;;20.05;33.25
74228;BME280;62587;52.352;5.006;2023-02-28T04:31:25;103103.19;;;20.04;33.24
74228;BME280;62587;52.352;5.006;2023-02-28T04:33:50;103103.16;;;20.05;33.28
74228;BME280;62587;52.352;5.006;2023-02-28T04:36:16;103098.69;;;20.06;33.15
74228;BME280;62587;52.352;5.006;2023-02-28T04:38:45;103098.81;;;20.03;32.77
74228;BME280;62587;52.352;5.006;2023-02-28T04:41:11;103093.53;;;20.01;33.07
74228;BME280;62587;52.352;5.006;2023-02-28T04:43:36;103107.75;;;20.00;33.11
74228;BME280;62587;52.352;5.006;2023-02-28T04:46:03;103101.56;;;20.00;33.11
74228;BME280;62587;52.352;5.006;2023-02-28T04:48:30;103101.56;;;20.00;32.85
74228;BME280;62587;52.352;5.006;2023-02-28T04:51:03;103105.19;;;19.97;33.08
74228;BME280;62587;52.352;5.006;2023-02-28T04:53:29;103102.53;;;19.97;33.05
74228;BME280;62587;52.352;5.006;2023-02-28T04:55:56;103094.63;;;19.96;33.05
74228;BME280;62587;52.352;5.006;2023-02-28T04:58:21;103098.13;;;19.96;33.11
74228;BME280;62587;52.352;5.006;2023-02-28T05:00:49;103100.84;;;19.95;32.81
74228;BME280;62587;52.352;5.006;2023-02-28T05:03:15;103099.97;;;19.94;32.68
74228;BME280;62587;52.352;5.006;2023-02-28T05:05:40;103095.59;;;19.93;32.75
74228;BME280;62587;52.352;5.006;2023-02-28T05:08:05;103097.31;;;19.94;32.94
74228;BME280;62587;52.352;5.006;2023-02-28T05:10:31;103094.66;;;19.94;32.76
74228;BME280;62587;52.352;5.006;2023-02-28T05:12:57;103092.13;;;19.91;32.69
74228;BME280;62587;52.352;5.006;2023-02-28T05:15:22;103095.63;;;19.92;32.53
74228;BME280;62587;52.352;5.006;2023-02-28T05:17:48;103098.25;;;19.93;32.56
74228;BME280;62587;52.352;5.006;2023-02-28T05:20:13;103102.63;;;19.94;32.93
74228;BME280;62587;52.352;5.006;2023-02-28T05:22:39;103100.94;;;19.92;32.84
74228;BME280;62587;52.352;5.006;2023-02-28T05:25:05;103105.41;;;19.91;32.55
74228;BME280;62587;52.352;5.006;2023-02-28T05:27:31;103100.13;;;19.90;32.92
74228;BME280;62587;52.352;5.006;2023-02-28T05:29:56;103111.63;;;19.90;32.62
74228;BME280;62587;52.352;5.006;2023-02-28T05:32:22;103116.06;;;19.90;32.97
74228;BME280;62587;52.352;5.006;2023-02-28T05:34:47;103115.19;;;19.89;32.83
74228;BME280;62587;52.352;5.006;2023-02-28T05:37:13;103120.59;;;19.88;32.54
74228;BME280;62587;52.352;5.006;2023-02-28T05:39:39;103118.78;;;19.88;32.90
74228;BME280;62587;52.352;5.006;2023-02-28T05:42:05;103117.09;;;19.86;32.67
74228;BME280;62587;52.352;5.006;2023-02-28T05:44:31;103113.50;;;19.87;32.66
74228;BME280;62587;52.352;5.006;2023-02-28T05:46:56;103106.50;;;19.84;32.92
74228;BME280;62587;52.352;5.006;2023-02-28T05:49:22;103110.91;;;19.85;32.84
74228;BME280;62587;52.352;5.006;2023-02-28T05:51:47;103110.09;;;19.83;33.22
74228;BME280;62587;52.352;5.006;2023-02-28T05:54:12;103113.63;;;19.84;32.92
74228;BME280;62587;52.352;5.006;2023-02-28T05:56:38;103116.31;;;19.82;33.27
74228;BME280;62587;52.352;5.006;2023-02-28T05:59:05;103114.59;;;19.81;33.18
74228;BME280;62587;52.352;5.006;2023-02-28T06:01:32;103118.13;;;19.82;32.95
74228;BME280;62587;52.352;5.006;2023-02-28T06:03:59;103113.72;;;19.81;33.00
74228;BME280;62587;52.352;5.006;2023-02-28T06:06:25;103114.63;;;19.80;32.81
74228;BME280;62587;52.352;5.006;2023-02-28T06:08:50;103126.19;;;19.79;33.40
74228;BME280;62587;52.352;5.006;2023-02-28T06:11:15;103123.47;;;19.80;33.00
74228;BME280;62587;52.352;5.006;2023-02-28T06:13:41;103126.13;;;19.80;33.25
74228;BME280;62587;52.352;5.006;2023-02-28T06:16:08;103127.91;;;19.81;33.19
74228;BME280;62587;52.352;5.006;2023-02-28T06:18:35;103138.53;;;19.81;33.42
74228;BME280;62587;52.352;5.006;2023-02-28T06:21:00;103140.31;;;19.81;32.94
74228;BME280;62587;52.352;5.006;2023-02-28T06:23:25;103138.63;;;19.78;32.99
74228;BME280;62587;52.352;5.006;2023-02-28T06:25:51;103135.13;;;19.76;32.95
74228;BME280;62587;52.352;5.006;2023-02-28T06:28:18;103139.59;;;19.76;33.39
74228;BME280;62587;52.352;5.006;2023-02-28T06:30:43;103144.03;;;19.75;33.40
74228;BME280;62587;52.352;5.006;2023-02-28T06:33:08;103144.06;;;19.74;33.44
74228;BME280;62587;52.352;5.006;2023-02-28T06:35:34;103146.75;;;19.74;33.26
74228;BME280;62587;52.352;5.006;2023-02-28T06:37:59;103146.69;;;19.75;33.10
74228;BME280;62587;52.352;5.006;2023-02-28T06:40:24;103141.34;;;19.75;32.99
74228;BME280;62587;52.352;5.006;2023-02-28T06:42:50;103151.97;;;19.77;32.92
74228;BME280;62587;52.352;5.006;2023-02-28T06:45:15;103146.66;;;19.77;32.79
74228;BME280;62587;52.352;5.006;2023-02-28T06:47:41;103148.44;;;19.76;33.20
74228;BME280;62587;52.352;5.006;2023-02-28T06:50:09;103150.16;;;19.77;32.97
74228;BME280;62587;52.352;5.006;2023-02-28T06:52:35;103156.34;;;19.78;32.80
74228;BME280;62587;52.352;5.006;2023-02-28T06:55:05;103158.13;;;19.77;33.13
74228;BME280;62587;52.352;5.006;2023-02-28T06:57:31;103159.09;;;19.75;33.19
74228;BME280;62587;52.352;5.006;2023-02-28T07:00:02;103167.13;;;19.73;32.99
74228;BME280;62587;52.352;5.006;2023-02-28T07:02:28;103163.66;;;19.71;32.88
74228;BME280;62587;52.352;5.006;2023-02-28T07:04:53;103165.50;;;19.69;33.09
74228;BME280;62587;52.352;5.006;2023-02-28T07:07:19;103170.81;;;19.69;33.31
74228;BME280;62587;52.352;5.006;2023-02-28T07:09:44;103169.88;;;19.70;32.81
74228;BME280;62587;52.352;5.006;2023-02-28T07:12:10;103175.16;;;19.72;33.04
74228;BME280;62587;52.352;5.006;2023-02-28T07:14:36;103174.22;;;19.73;33.14
74228;BME280;62587;52.352;5.006;2023-02-28T07:17:01;103177.66;;;19.76;32.74
74228;BME280;62587;52.352;5.006;2023-02-28T07:19:27;103182.78;;;19.82;32.61
74228;BME280;62587;52.352;5.006;2023-02-28T07:21:53;103186.97;;;19.89;32.39
74228;BME280;62587;52.352;5.006;2023-02-28T07:24:18;103184.09;;;19.97;32.50
74228;BME280;62587;52.352;5.006;2023-02-28T07:26:44;103180.31;;;20.04;32.48
74228;BME280;62587;52.352;5.006;2023-02-28T07:29:09;103174.69;;;20.13;32.49
74228;BME280;62587;52.352;5.006;2023-02-28T07:31:35;103184.25;;;20.20;32.30
74228;BME280;62587;52.352;5.006;2023-02-28T07:34:00;103193.72;;;20.29;32.29
74228;BME280;62587;52.352;5.006;2023-02-28T07:36:26;103188.09;;;20.38;31.99
74228;BME280;62587;52.352;5.006;2023-02-28T07:38:51;103193.16;;;20.45;31.92
74228;BME280;62587;52.352;5.006;2023-02-28T07:41:18;103190.25;;;20.53;31.79
74228;BME280;62587;52.352;5.006;2023-02-28T07:43:45;103199.69;;;20.61;31.73
74228;BME280;62587;52.352;5.006;2023-02-28T07:46:12;103194.09;;;20.69;31.57
74228;BME280;62587;52.352;5.006;2023-02-28T07:48:40;103182.38;;;20.75;31.45
74228;BME280;62587;52.352;5.006;2023-02-28T07:51:06;103182.13;;;20.82;31.24
74228;BME280;62587;52.352;5.006;2023-02-28T07:53:32;103193.47;;;20.87;31.50
74228;BME280;62587;52.352;5.006;2023-02-28T07:55:58;103185.31;;;20.92;31.36
74228;BME280;62587;52.352;5.006;2023-02-28T07:58:25;103188.63;;;20.98;31.70
74228;BME280;62587;52.352;5.006;2023-02-28T08:00:51;103184.84;;;21.05;31.44
74228;BME280;62587;52.352;5.006;2023-02-28T08:03:18;103190.00;;;21.10;31.26
74228;BME280;62587;52.352;5.006;2023-02-28T08:05:44;103194.19;;;21.17;31.27
74228;BME280;62587;52.352;5.006;2023-02-28T08:08:10;103185.22;;;21.19;31.36
74228;BME280;62587;52.352;5.006;2023-02-28T08:10:36;103193.97;;;21.23;31.26
74228;BME280;62587;52.352;5.006;2023-02-28T08:13:04;103190.38;;;21.24;31.51
74228;BME280;62587;52.352;5.006;2023-02-28T08:15:29;103185.91;;;21.24;31.55
74228;BME280;62587;52.352;5.006;2023-02-28T08:17:54;103183.25;;;21.24;31.54
74228;BME280;62587;52.352;5.006;2023-02-28T08:20:22;103193.03;;;21.24;31.28
74228;BME280;62587;52.352;5.006;2023-02-28T08:22:48;103186.91;;;21.22;31.39
74228;BME280;62587;52.352;5.006;2023-02-28T08:25:13;103178.34;;;21.14;31.28
74228;BME280;62587;52.352;5.006;2023-02-28T08:27:38;103181.84;;;21.14;31.41
74228;BME280;62587;52.352;5.006;2023-02-28T08:30:04;103181.97;;;21.11;31.50
74228;BME280;62587;52.352;5.006;2023-02-28T08:32:32;103177.63;;;21.09;31.55
74228;BME280;62587;52.352;5.006;2023-02-28T08:34:57;103171.56;;;21.04;31.63
74228;BME280;62587;52.352;5.006;2023-02-28T08:37:22;103177.16;;;20.96;31.66
74228;BME280;62587;52.352;5.006;2023-02-28T08:39:48;103179.88;;;20.95;31.62
74228;BME280;62587;52.352;5.006;2023-02-28T08:42:13;103178.25;;;20.91;31.69
74228;BME280;62587;52.352;5.006;2023-02-28T08:44:39;103180.16;;;20.87;31.73
74228;BME280;62587;52.352;5.006;2023-02-28T08:47:05;103175.03;;;20.81;31.58
74228;BME280;62587;52.352;5.006;2023-02-28T08:49:30;103168.91;;;20.79;31.73
74228;BME280;62587;52.352;5.006;2023-02-28T08:51:56;103170.94;;;20.73;31.76
74228;BME280;62587;52.352;5.006;2023-02-28T08:54:22;103180.75;;;20.70;31.84
74228;BME280;62587;52.352;5.006;2023-02-28T08:56:48;103174.72;;;20.65;31.78
74228;BME280;62587;52.352;5.006;2023-02-28T08:59:14;103169.59;;;20.59;32.06
74228;BME280;62587;52.352;5.006;2023-02-28T09:01:39;103178.47;;;20.60;31.60
74228;BME280;62587;52.352;5.006;2023-02-28T09:04:07;103176.84;;;20.56;31.65
74228;BME280;62587;52.352;5.006;2023-02-28T09:06:34;103167.97;;;20.55;31.60
74228;BME280;62587;52.352;5.006;2023-02-28T09:09:00;103169.06;;;20.50;31.96
74228;BME280;62587;52.352;5.006;2023-02-28T09:11:27;103177.97;;;20.49;31.94
74228;BME280;62587;52.352;5.006;2023-02-28T09:13:53;103176.28;;;20.46;32.05
74228;BME280;62587;52.352;5.006;2023-02-28T09:16:20;103180.72;;;20.46;32.07
74228;BME280;62587;52.352;5.006;2023-02-28T09:18:46;103180.06;;;20.39;32.09
74228;BME280;62587;52.352;5.006;2023-02-28T09:21:14;103179.19;;;20.39;31.84
74228;BME280;62587;52.352;5.006;2023-02-28T09:23:48;103186.22;;;20.41;31.96
74228;BME280;62587;52.352;5.006;2023-02-28T09:26:16;103185.50;;;20.36;32.11
74228;BME280;62587;52.352;5.006;2023-02-28T09:28:42;103188.16;;;20.36;31.87
74228;BME280;62587;52.352;5.006;2023-02-28T09:31:12;103189.03;;;20.37;32.04
74228;BME280;62587;52.352;5.006;2023-02-28T09:33:38;103188.19;;;20.35;32.14
74228;BME280;62587;52.352;5.006;2023-02-28T09:36:04;103191.78;;;20.34;32.01
74228;BME280;62587;52.352;5.006;2023-02-28T09:38:29;103197.97;;;20.34;32.01
74228;BME280;62587;52.352;5.006;2023-02-28T09:41:01;103197.09;;;20.34;32.24
74228;BME280;62587;52.352;5.006;2023-02-28T09:43:34;103191.94;;;20.29;31.78
74228;BME280;62587;52.352;5.006;2023-02-28T09:46:14;103193.66;;;20.30;32.20
74228;BME280;62587;52.352;5.006;2023-02-28T09:48:45;103201.72;;;20.29;32.20
74228;BME280;62587;52.352;5.006;2023-02-28T09:51:37;103199.03;;;20.29;31.88
74228;BME280;62587;52.352;5.006;2023-02-28T09:54:05;103202.75;;;20.25;32.06
74228;BME280;62587;52.352;5.006;2023-02-28T09:56:39;103203.59;;;20.25;32.16
74228;BME280;62587;52.352;5.006;2023-02-28T10:02:01;103203.66;;;20.24;31.92
74228;BME280;62587;52.352;5.006;2023-02-28T10:09:53;103209.16;;;20.18;32.07
74228;BME280;62587;52.352;5.006;2023-02-28T10:12:20;103201.09;;;20.19;31.68
74228;BME280;62587;52.352;5.006;2023-02-28T10:14:48;103200.28;;;20.17;31.87
74228;BME280;62587;52.352;5.006;2023-02-28T10:17:19;103201.91;;;20.21;31.69
74228;BME280;62587;52.352;5.006;2023-02-28T10:20:11;103208.19;;;20.19;31.74
74228;BME280;62587;52.352;5.006;2023-02-28T10:22:52;103201.19;;;20.16;31.73
74228;BME280;62587;52.352;5.006;2023-02-28T10:25:25;103204.63;;;20.20;31.48
74228;BME280;62587;52.352;5.006;2023-02-28T10:27:59;103207.44;;;20.15;31.54
74228;BME280;62587;52.352;5.006;2023-02-28T10:30:26;103219.91;;;20.13;31.75
74228;BME280;62587;52.352;5.006;2023-02-28T10:32:52;103214.50;;;20.16;31.69
74228;BME280;62587;52.352;5.006;2023-02-28T10:35:24;103217.16;;;20.16;31.50
74228;BME280;62587;52.352;5.006;2023-02-28T10:37:55;103214.47;;;20.18;31.33
74228;BME280;62587;52.352;5.006;2023-02-28T10:45:24;103211.03;;;20.14;31.11
74228;BME280;62587;52.352;5.006;2023-02-28T10:47:58;103207.38;;;20.17;30.58
74228;BME280;62587;52.352;5.006;2023-02-28T10:58:53;103197.56;;;20.19;30.43
74228;BME280;62587;52.352;5.006;2023-02-28T11:04:01;103195.84;;;20.18;30.53
74228;BME280;62587;52.352;5.006;2023-02-28T11:06:30;103187.91;;;20.16;30.55
74228;BME280;62587;52.352;5.006;2023-02-28T11:08:59;103187.06;;;20.14;30.62
74228;BME280;62587;52.352;5.006;2023-02-28T11:11:28;103191.53;;;20.14;30.32
74228;BME280;62587;52.352;5.006;2023-02-28T11:13:57;103179.03;;;20.16;30.10
74228;BME280;62587;52.352;5.006;2023-02-28T11:16:36;103180.78;;;20.17;29.79
74228;BME280;62587;52.352;5.006;2023-02-28T11:19:04;103182.53;;;20.18;30.03
74228;BME280;62587;52.352;5.006;2023-02-28T11:21:36;103176.34;;;20.17;30.17
74228;BME280;62587;52.352;5.006;2023-02-28T11:26:49;103176.38;;;20.16;29.90
74228;BME280;62587;52.352;5.006;2023-02-28T11:29:27;103174.75;;;20.12;29.91
74228;BME280;62587;52.352;5.006;2023-02-28T11:32:05;103169.34;;;20.15;29.51
74228;BME280;62587;52.352;5.006;2023-02-28T11:34:31;103163.13;;;20.14;29.93
74228;BME280;62587;52.352;5.006;2023-02-28T11:36:59;103170.22;;;20.15;29.79
74228;BME280;62587;52.352;5.006;2023-02-28T11:39:26;103169.25;;;20.18;29.23
74228;BME280;62587;52.352;5.006;2023-02-28T11:47:47;103162.91;;;20.22;29.06
74228;BME280;62587;52.352;5.006;2023-02-28T11:56:20;103158.34;;;20.25;29.23
74228;BME280;62587;52.352;5.006;2023-02-28T12:02:20;103152.94;;;20.28;29.10
74228;BME280;62587;52.352;5.006;2023-02-28T12:05:05;103146.75;;;20.28;29.17
74228;BME280;62587;52.352;5.006;2023-02-28T12:11:10;103144.97;;;20.28;28.90
74228;BME280;62587;52.352;5.006;2023-02-28T12:19:06;103138.97;;;20.22;28.77
74228;BME280;62587;52.352;5.006;2023-02-28T12:22:05;103138.97;;;20.22;28.96
74228;BME280;62587;52.352;5.006;2023-02-28T12:27:18;103134.53;;;20.21;28.85
74228;BME280;62587;52.352;5.006;2023-02-28T12:29:57;103134.59;;;20.19;28.95
74228;BME280;62587;52.352;5.006;2023-02-28T12:32:30;103125.81;;;20.17;29.05
74228;BME280;62587;52.352;5.006;2023-02-28T12:37:44;103128.50;;;20.16;28.99
74228;BME280;62587;52.352;5.006;2023-02-28T12:40:17;103124.06;;;20.16;28.76
74228;BME280;62587;52.352;5.006;2023-02-28T12:42:48;103118.75;;;20.16;28.75
74228;BME280;62587;52.352;5.006;2023-02-28T12:45:27;103120.53;;;20.16;28.67
74228;BME280;62587;52.352;5.006;2023-02-28T12:48:04;103119.69;;;20.15;28.71
74228;BME280;62587;52.352;5.006;2023-02-28T12:50:32;103112.59;;;20.14;28.60
74228;BME280;62587;52.352;5.006;2023-02-28T12:53:03;103115.34;;;20.13;28.78
74228;BME280;62587;52.352;5.006;2023-02-28T12:55:45;103117.13;;;20.12;28.72
74228;BME280;62587;52.352;5.006;2023-02-28T12:58:44;103114.53;;;20.11;28.41
74228;BME280;62587;52.352;5.006;2023-02-28T13:03:42;103107.59;;;20.05;28.63
74228;BME280;62587;52.352;5.006;2023-02-28T13:11:45;103105.03;;;20.02;28.62
74228;BME280;62587;52.352;5.006;2023-02-28T13:14:29;103103.31;;;20.01;28.38
74228;BME280;62587;52.352;5.006;2023-02-28T13:17:10;103101.56;;;20.00;28.53
74228;BME280;62587;52.352;5.006;2023-02-28T13:19:56;103100.66;;;20.01;28.84
74228;BME280;62587;52.352;5.006;2023-02-28T13:24:54;103098.84;;;20.01;28.57
74228;BME280;62587;52.352;5.006;2023-02-28T13:29:51;103099.72;;;20.02;28.29
74228;BME280;62587;52.352;5.006;2023-02-28T13:32:28;103097.06;;;20.02;28.44
74228;BME280;62587;52.352;5.006;2023-02-28T13:40:22;103088.38;;;19.97;28.28
74228;BME280;62587;52.352;5.006;2023-02-28T13:42:51;103086.75;;;19.93;28.73
74228;BME280;62587;52.352;5.006;2023-02-28T13:45:23;103083.19;;;19.92;28.31
74228;BME280;62587;52.352;5.006;2023-02-28T13:48:16;103079.72;;;19.90;28.85
74228;BME280;62587;52.352;5.006;2023-02-28T13:50:43;103078.91;;;19.88;28.79
74228;BME280;62587;52.352;5.006;2023-02-28T14:03:43;103079.06;;;19.84;28.77
74228;BME280;62587;52.352;5.006;2023-02-28T14:06:25;103072.00;;;19.83;28.49
74228;BME280;62587;52.352;5.006;2023-02-28T14:11:41;103067.63;;;19.82;28.78
74228;BME280;62587;52.352;5.006;2023-02-28T14:14:08;103071.13;;;19.82;28.55
74228;BME280;62587;52.352;5.006;2023-02-28T14:16:52;103064.19;;;19.78;28.90
74228;BME280;62587;52.352;5.006;2023-02-28T14:19:24;103067.66;;;19.80;29.07
74228;BME280;62587;52.352;5.006;2023-02-28T14:27:52;103057.97;;;19.79;29.03
74228;BME280;62587;52.352;5.006;2023-02-28T14:33:12;103063.41;;;19.75;29.08
74228;BME280;62587;52.352;5.006;2023-02-28T14:38:33;103061.53;;;19.78;28.75
74228;BME280;62587;52.352;5.006;2023-02-28T14:41:04;103062.44;;;19.77;28.82
74228;BME280;62587;52.352;5.006;2023-02-28T14:43:31;103065.06;;;19.79;28.91
74228;BME280;62587;52.352;5.006;2023-02-28T14:45:59;103057.91;;;19.81;29.14
74228;BME280;62587;52.352;5.006;2023-02-28T14:48:25;103057.91;;;19.81;28.73
74228;BME280;62587;52.352;5.006;2023-02-28T14:50:55;103055.19;;;19.82;28.80
74228;BME280;62587;52.352;5.006;2023-02-28T14:53:23;103058.72;;;19.83;28.79
74228;BME280;62587;52.352;5.006;2023-02-28T14:55:50;103049.88;;;19.82;29.01
74228;BME280;62587;52.352;5.006;2023-02-28T14:58:27;103055.97;;;19.86;28.91
74228;BME280;62587;52.352;5.006;2023-02-28T15:00:55;103046.94;;;19.90;29.05
74228;BME280;62587;52.352;5.006;2023-02-28T15:05:57;103045.22;;;20.88;27.51
74228;BME280;62587;52.352;5.006;2023-02-28T15:08:23;103050.91;;;21.25;27.08
74228;BME280;62587;52.352;5.006;2023-02-28T15:10:58;103049.66;;;21.55;26.60
74228;BME280;62587;52.352;5.006;2023-02-28T15:13:36;103041.53;;;21.80;26.24
74228;BME280;62587;52.352;5.006;2023-02-28T15:16:28;103049.44;;;22.03;25.96
74228;BME280;62587;52.352;5.006;2023-02-28T15:19:05;103042.28;;;22.05;25.86
74228;BME280;62587;52.352;5.006;2023-02-28T15:21:34;103043.91;;;22.08;25.65
74228;BME280;62587;52.352;5.006;2023-02-28T15:24:11;103043.13;;;22.06;25.75